sensor_id;sensor_type;location;lat;lon;timestamp;P1;durP1;ratioP1;P2;durP2;ratioP2
12888;SDS011;56848;49.896;11.424;2023-02-18T05:01:27;2.60;;;2.40;;
12888;SDS011;56848;49.896;11.424;2023-02-18T05:03:53;2.60;;;2.40;;
12888;SDS011;56848;49.896;11.424;2023-02-18T05:06:18;3.43;;;3.00;;
12888;SDS011;56848;49.896;11.424;2023-02-18T05:08:44;2.20;;;2.10;;
12888;SDS011;56848;49.896;11.424;2023-02-18T05:11:09;2.80;;;2.60;;
12888;SDS011;56848;49.896;11.424;2023-02-18T05:13:35;2.57;;;2.33;;
12888;SDS011;56848;49.896;11.424;2023-02-18T05:16:01;1.80;;;1.70;;
12888;SDS011;56848;49.896;11.424;2023-02-18T05:18:26;2.07;;;1.73;;
12888;SDS011;56848;49.896;11.424;2023-02-18T05:20:52;3.00;;;2.57;;
12888;SDS011;56848;49.896;11.424;2023-02-18T05:23:17;2.10;;;2.00;;
12888;SDS011;56848;49.896;11.424;2023-02-18T05:25:45;2.20;;;2.00;;
12888;SDS011;56848;49.896;11.424;2023-02-18T05:28:11;4.43;;;2.43;;
12888;SDS011;56848;49.896;11.424;2023-02-18T05:30:36;2.60;;;2.40;;
12888;SDS011;56848;49.896;11.424;2023-02-18T05:33:03;2.37;;;2.17;;
12888;SDS011;56848;49.896;11.424;2023-02-18T05:35:28;2.43;;;2.23;;
12888;SDS011;56848;49.896;11.424;2023-02-18T05:37:54;2.93;;;2.53;;
12888;SDS011;56848;49.896;11.424;2023-02-18T05:40:19;3.03;;;2.73;;
12888;SDS011;56848;49.896;11.424;2023-02-18T05:42:45;2.60;;;2.30;;
12888;SDS011;56848;49.896;11.424;2023-02-18T05:45:10;3.23;;;2.47;;
12888;SDS011;56848;49.896;11.424;2023-02-18T05:47:36;2.33;;;1.87;;
12888;SDS011;56848;49.896;11.424;2023-02-18T05:50:02;2.63;;;2.43;;
12888;SDS011;56848;49.896;11.424;2023-02-18T05:52:28;1.30;;;1.30;;
12888;SDS011;56848;49.896;11.424;2023-02-18T05:54:53;2.07;;;1.90;;
12888;SDS011;56848;49.896;11.424;2023-02-18T05:57:19;1.87;;;1.70;;
12888;SDS011;56848;49.896;11.424;2023-02-18T05:59:46;2.20;;;2.00;;
12888;SDS011;56848;49.896;11.424;2023-02-18T06:02:11;1.90;;;1.70;;
12888;SDS011;56848;49.896;11.424;2023-02-18T06:04:37;1.90;;;1.80;;
12888;SDS011;56848;49.896;11.424;2023-02-18T06:07:03;3.70;;;2.20;;
12888;SDS011;56848;49.896;11.424;2023-02-18T06:09:28;1.83;;;1.73;;
12888;SDS011;56848;49.896;11.424;2023-02-18T06:11:54;4.20;;;2.53;;
12888;SDS011;56848;49.896;11.424;2023-02-18T06:14:19;1.90;;;1.80;;
12888;SDS011;56848;49.896;11.424;2023-02-18T06:16:45;2.77;;;2.57;;
12888;SDS011;56848;49.896;11.424;2023-02-18T06:19:11;2.77;;;2.40;;
12888;SDS011;56848;49.896;11.424;2023-02-18T06:21:36;3.23;;;2.10;;
12888;SDS011;56848;49.896;11.424;2023-02-18T06:24:02;3.50;;;3.20;;
12888;SDS011;56848;49.896;11.424;2023-02-18T06:26:28;3.07;;;2.77;;
12888;SDS011;56848;49.896;11.424;2023-02-18T06:28:53;3.03;;;2.70;;
12888;SDS011;56848;49.896;11.424;2023-02-18T06:31:19;3.30;;;3.00;;
12888;SDS011;56848;49.896;11.424;2023-02-18T06:33:44;5.70;;;3.03;;
12888;SDS011;56848;49.896;11.424;2023-02-18T06:36:10;6.20;;;3.40;;
12888;SDS011;56848;49.896;11.424;2023-02-18T06:38:37;3.67;;;3.30;;
12888;SDS011;56848;49.896;11.424;2023-02-18T06:41:04;3.00;;;2.80;;
12888;SDS011;56848;49.896;11.424;2023-02-18T06:43:30;3.50;;;2.80;;
12888;SDS011;56848;49.896;11.424;2023-02-18T06:45:56;2.87;;;2.67;;
12888;SDS011;56848;49.896;11.424;2023-02-18T06:48:21;3.87;;;3.47;;
12888;SDS011;56848;49.896;11.424;2023-02-18T06:50:48;2.70;;;2.50;;
12888;SDS011;56848;49.896;11.424;2023-02-18T06:53:14;3.43;;;3.10;;
12888;SDS011;56848;49.896;11.424;2023-02-18T06:55:41;2.40;;;2.20;;
12888;SDS011;56848;49.896;11.424;2023-02-18T06:58:07;2.30;;;2.10;;
12888;SDS011;56848;49.896;11.424;2023-02-18T07:00:33;2.63;;;2.43;;
12888;SDS011;56848;49.896;11.424;2023-02-18T07:02:59;2.33;;;2.20;;
12888;SDS011;56848;49.896;11.424;2023-02-18T07:05:25;2.50;;;1.97;;
12888;SDS011;56848;49.896;11.424;2023-02-18T07:07:51;2.10;;;2.00;;
12888;SDS011;56848;49.896;11.424;2023-02-18T07:10:16;2.30;;;2.20;;
12888;SDS011;56848;49.896;11.424;2023-02-18T07:12:42;2.20;;;2.10;;
12888;SDS011;56848;49.896;11.424;2023-02-18T07:15:08;2.00;;;1.90;;
12888;SDS011;56848;49.896;11.424;2023-02-18T07:17:34;2.90;;;1.60;;
12888;SDS011;56848;49.896;11.424;2023-02-18T07:19:59;1.87;;;1.77;;
12888;SDS011;56848;49.896;11.424;2023-02-18T07:22:25;2.63;;;2.43;;
12888;SDS011;56848;49.896;11.424;2023-02-18T07:24:51;1.90;;;1.80;;
12888;SDS011;56848;49.896;11.424;2023-02-18T07:27:18;4.10;;;2.83;;
12888;SDS011;56848;49.896;11.424;2023-02-18T07:29:44;2.73;;;2.53;;
12888;SDS011;56848;49.896;11.424;2023-02-18T07:32:13;3.90;;;3.03;;
12888;SDS011;56848;49.896;11.424;2023-02-18T07:34:40;2.70;;;2.50;;
12888;SDS011;56848;49.896;11.424;2023-02-18T07:37:06;2.53;;;2.33;;
12888;SDS011;56848;49.896;11.424;2023-02-18T07:39:39;3.30;;;2.60;;
12888;SDS011;56848;49.896;11.424;2023-02-18T07:42:07;2.20;;;2.07;;
12888;SDS011;56848;49.896;11.424;2023-02-18T07:44:34;2.10;;;2.00;;
12888;SDS011;56848;49.896;11.424;2023-02-18T07:47:00;2.47;;;2.07;;
12888;SDS011;56848;49.896;11.424;2023-02-18T07:49:26;2.00;;;1.90;;
12888;SDS011;56848;49.896;11.424;2023-02-18T07:51:52;2.03;;;1.90;;
12888;SDS011;56848;49.896;11.424;2023-02-18T07:54:18;1.57;;;1.10;;
12888;SDS011;56848;49.896;11.424;2023-02-18T07:56:44;1.93;;;1.80;;
12888;SDS011;56848;49.896;11.424;2023-02-18T07:59:10;4.00;;;2.47;;
12888;SDS011;56848;49.896;11.424;2023-02-18T08:01:36;3.20;;;2.90;;
12888;SDS011;56848;49.896;11.424;2023-02-18T08:04:02;6.03;;;4.40;;
12888;SDS011;56848;49.896;11.424;2023-02-18T08:06:35;8.20;;;5.20;;
12888;SDS011;56848;49.896;11.424;2023-02-18T08:09:03;6.17;;;4.63;;
12888;SDS011;56848;49.896;11.424;2023-02-18T08:11:29;9.97;;;6.07;;
12888;SDS011;56848;49.896;11.424;2023-02-18T08:13:55;11.50;;;6.90;;
12888;SDS011;56848;49.896;11.424;2023-02-18T08:16:21;7.23;;;5.83;;
12888;SDS011;56848;49.896;11.424;2023-02-18T08:18:47;13.87;;;8.00;;
12888;SDS011;56848;49.896;11.424;2023-02-18T08:21:14;14.07;;;8.70;;
12888;SDS011;56848;49.896;11.424;2023-02-18T08:23:40;15.47;;;11.57;;
12888;SDS011;56848;49.896;11.424;2023-02-18T08:26:06;13.03;;;9.30;;
12888;SDS011;56848;49.896;11.424;2023-02-18T08:28:32;9.40;;;7.27;;
12888;SDS011;56848;49.896;11.424;2023-02-18T08:30:57;17.80;;;11.43;;
12888;SDS011;56848;49.896;11.424;2023-02-18T08:33:24;13.10;;;5.87;;
12888;SDS011;56848;49.896;11.424;2023-02-18T08:35:50;12.60;;;9.43;;
12888;SDS011;56848;49.896;11.424;2023-02-18T08:38:17;13.90;;;8.43;;
12888;SDS011;56848;49.896;11.424;2023-02-18T08:40:44;5.50;;;4.40;;
12888;SDS011;56848;49.896;11.424;2023-02-18T08:43:10;12.80;;;8.83;;
12888;SDS011;56848;49.896;11.424;2023-02-18T08:45:39;13.63;;;9.80;;
12888;SDS011;56848;49.896;11.424;2023-02-18T08:48:06;11.27;;;8.73;;
12888;SDS011;56848;49.896;11.424;2023-02-18T08:50:32;14.83;;;9.20;;
12888;SDS011;56848;49.896;11.424;2023-02-18T08:52:58;14.93;;;10.50;;
12888;SDS011;56848;49.896;11.424;2023-02-18T08:55:27;13.77;;;8.80;;
12888;SDS011;56848;49.896;11.424;2023-02-18T08:57:53;13.60;;;8.17;;
12888;SDS011;56848;49.896;11.424;2023-02-18T09:00:19;11.13;;;7.10;;
12888;SDS011;56848;49.896;11.424;2023-02-18T09:02:44;12.17;;;9.27;;
12888;SDS011;56848;49.896;11.424;2023-02-18T09:05:11;13.30;;;9.23;;
12888;SDS011;56848;49.896;11.424;2023-02-18T09:07:37;12.40;;;8.30;;
12888;SDS011;56848;49.896;11.424;2023-02-18T09:10:03;14.00;;;8.60;;
12888;SDS011;56848;49.896;11.424;2023-02-18T09:12:29;11.20;;;8.10;;
12888;SDS011;56848;49.896;11.424;2023-02-18T09:14:54;11.83;;;6.53;;
12888;SDS011;56848;49.896;11.424;2023-02-18T09:17:20;13.97;;;8.70;;
12888;SDS011;56848;49.896;11.424;2023-02-18T09:19:46;10.77;;;8.77;;
12888;SDS011;56848;49.896;11.424;2023-02-18T09:22:11;9.90;;;6.13;;
12888;SDS011;56848;49.896;11.424;2023-02-18T09:24:38;13.27;;;9.33;;
12888;SDS011;56848;49.896;11.424;2023-02-18T09:27:04;11.00;;;7.60;;
12888;SDS011;56848;49.896;11.424;2023-02-18T09:29:30;19.50;;;7.93;;
12888;SDS011;56848;49.896;11.424;2023-02-18T09:31:59;10.93;;;8.20;;
12888;SDS011;56848;49.896;11.424;2023-02-18T09:34:25;10.30;;;7.23;;
12888;SDS011;56848;49.896;11.424;2023-02-18T09:36:51;13.27;;;8.13;;
12888;SDS011;56848;49.896;11.424;2023-02-18T09:39:17;10.20;;;8.10;;
12888;SDS011;56848;49.896;11.424;2023-02-18T09:41:45;11.03;;;8.23;;
12888;SDS011;56848;49.896;11.424;2023-02-18T09:47:27;15.53;;;7.87;;
12888;SDS011;56848;49.896;11.424;2023-02-18T09:49:57;11.60;;;7.90;;
12888;SDS011;56848;49.896;11.424;2023-02-18T09:52:28;13.53;;;7.63;;
12888;SDS011;56848;49.896;11.424;2023-02-18T09:54:57;11.77;;;7.10;;
12888;SDS011;56848;49.896;11.424;2023-02-18T10:00:03;10.63;;;7.90;;
12888;SDS011;56848;49.896;11.424;2023-02-18T10:02:30;9.23;;;5.53;;
12888;SDS011;56848;49.896;11.424;2023-02-18T10:04:57;9.80;;;7.27;;
12888;SDS011;56848;49.896;11.424;2023-02-18T10:07:27;12.30;;;6.77;;
12888;SDS011;56848;49.896;11.424;2023-02-18T10:09:56;11.30;;;8.17;;
12888;SDS011;56848;49.896;11.424;2023-02-18T10:12:26;8.53;;;6.50;;
12888;SDS011;56848;49.896;11.424;2023-02-18T10:14:55;9.40;;;5.57;;
12888;SDS011;56848;49.896;11.424;2023-02-18T10:17:24;8.63;;;5.80;;
12888;SDS011;56848;49.896;11.424;2023-02-18T10:19:52;7.33;;;6.53;;
12888;SDS011;56848;49.896;11.424;2023-02-18T10:22:20;13.20;;;7.10;;
12888;SDS011;56848;49.896;11.424;2023-02-18T10:25:01;13.70;;;8.27;;
12888;SDS011;56848;49.896;11.424;2023-02-18T10:27:30;10.40;;;7.30;;
12888;SDS011;56848;49.896;11.424;2023-02-18T10:32:48;6.73;;;5.73;;
12888;SDS011;56848;49.896;11.424;2023-02-18T10:43:24;6.43;;;5.50;;
12888;SDS011;56848;49.896;11.424;2023-02-18T10:46:10;8.53;;;6.70;;
12888;SDS011;56848;49.896;11.424;2023-02-18T10:51:49;9.30;;;7.13;;
12888;SDS011;56848;49.896;11.424;2023-02-18T10:54:16;9.83;;;7.30;;
12888;SDS011;56848;49.896;11.424;2023-02-18T10:56:47;8.93;;;7.13;;
12888;SDS011;56848;49.896;11.424;2023-02-18T10:59:25;8.83;;;5.80;;
12888;SDS011;56848;49.896;11.424;2023-02-18T11:02:02;9.30;;;6.93;;
12888;SDS011;56848;49.896;11.424;2023-02-18T11:04:40;8.00;;;5.80;;
12888;SDS011;56848;49.896;11.424;2023-02-18T11:07:29;9.77;;;4.90;;
12888;SDS011;56848;49.896;11.424;2023-02-18T11:09:58;9.40;;;6.90;;
12888;SDS011;56848;49.896;11.424;2023-02-18T11:12:48;8.27;;;6.63;;
12888;SDS011;56848;49.896;11.424;2023-02-18T11:15:20;9.13;;;6.37;;
12888;SDS011;56848;49.896;11.424;2023-02-18T11:17:49;9.70;;;6.80;;
12888;SDS011;56848;49.896;11.424;2023-02-18T11:20:32;7.67;;;5.40;;
12888;SDS011;56848;49.896;11.424;2023-02-18T11:23:13;8.77;;;6.60;;
12888;SDS011;56848;49.896;11.424;2023-02-18T11:25:41;7.90;;;6.03;;
12888;SDS011;56848;49.896;11.424;2023-02-18T11:28:29;8.40;;;6.80;;
12888;SDS011;56848;49.896;11.424;2023-02-18T11:31:04;9.50;;;4.40;;
12888;SDS011;56848;49.896;11.424;2023-02-18T11:36:03;6.80;;;4.37;;
12888;SDS011;56848;49.896;11.424;2023-02-18T11:38:46;7.47;;;5.30;;
12888;SDS011;56848;49.896;11.424;2023-02-18T11:41:19;10.20;;;5.37;;
12888;SDS011;56848;49.896;11.424;2023-02-18T11:43:53;8.13;;;6.27;;
12888;SDS011;56848;49.896;11.424;2023-02-18T11:46:20;7.17;;;5.83;;
12888;SDS011;56848;49.896;11.424;2023-02-18T11:48:47;8.33;;;6.17;;
12888;SDS011;56848;49.896;11.424;2023-02-18T11:54:21;6.90;;;5.50;;
12888;SDS011;56848;49.896;11.424;2023-02-18T11:56:53;8.90;;;6.23;;
12888;SDS011;56848;49.896;11.424;2023-02-18T11:59:23;7.97;;;6.30;;
12888;SDS011;56848;49.896;11.424;2023-02-18T12:01:50;8.87;;;6.03;;
12888;SDS011;56848;49.896;11.424;2023-02-18T12:04:28;8.40;;;6.80;;
12888;SDS011;56848;49.896;11.424;2023-02-18T12:09:46;8.57;;;6.13;;
12888;SDS011;56848;49.896;11.424;2023-02-18T12:14:54;9.40;;;5.87;;
12888;SDS011;56848;49.896;11.424;2023-02-18T12:25:24;12.83;;;5.90;;
12888;SDS011;56848;49.896;11.424;2023-02-18T12:39:30;6.30;;;4.67;;
12888;SDS011;56848;49.896;11.424;2023-02-18T12:44:58;10.03;;;6.80;;
12888;SDS011;56848;49.896;11.424;2023-02-18T12:55:30;6.10;;;4.30;;
12888;SDS011;56848;49.896;11.424;2023-02-18T13:01:07;8.17;;;6.47;;
12888;SDS011;56848;49.896;11.424;2023-02-18T13:06:23;9.67;;;6.63;;
12888;SDS011;56848;49.896;11.424;2023-02-18T13:17:37;8.97;;;5.40;;
12888;SDS011;56848;49.896;11.424;2023-02-18T13:20:05;7.83;;;5.27;;
12888;SDS011;56848;49.896;11.424;2023-02-18T13:22:42;7.70;;;5.97;;
12888;SDS011;56848;49.896;11.424;2023-02-18T13:25:13;7.03;;;5.27;;
12888;SDS011;56848;49.896;11.424;2023-02-18T13:39:17;8.90;;;4.63;;
12888;SDS011;56848;49.896;11.424;2023-02-18T13:41:46;6.03;;;4.90;;
12888;SDS011;56848;49.896;11.424;2023-02-18T13:46:48;4.87;;;4.37;;
12888;SDS011;56848;49.896;11.424;2023-02-18T13:49:20;3.47;;;3.03;;
12888;SDS011;56848;49.896;11.424;2023-02-18T13:51:48;6.27;;;4.23;;
12888;SDS011;56848;49.896;11.424;2023-02-18T13:56:54;8.40;;;5.30;;
12888;SDS011;56848;49.896;11.424;2023-02-18T14:00:00;6.00;;;4.60;;
12888;SDS011;56848;49.896;11.424;2023-02-18T14:10:03;6.70;;;4.43;;
12888;SDS011;56848;49.896;11.424;2023-02-18T14:15:45;8.07;;;4.57;;
12888;SDS011;56848;49.896;11.424;2023-02-18T14:25:49;5.90;;;4.13;;
12888;SDS011;56848;49.896;11.424;2023-02-18T14:28:34;4.60;;;3.47;;
12888;SDS011;56848;49.896;11.424;2023-02-18T14:33:41;5.97;;;3.90;;
12888;SDS011;56848;49.896;11.424;2023-02-18T14:36:26;4.43;;;3.43;;
12888;SDS011;56848;49.896;11.424;2023-02-18T14:39:10;3.23;;;2.13;;
12888;SDS011;56848;49.896;11.424;2023-02-18T14:50:00;12.27;;;8.33;;
12888;SDS011;56848;49.896;11.424;2023-02-18T14:55:19;6.90;;;5.40;;
12888;SDS011;56848;49.896;11.424;2023-02-18T15:00:27;4.57;;;3.43;;
12888;SDS011;56848;49.896;11.424;2023-02-18T15:02:56;8.80;;;5.40;;
12888;SDS011;56848;49.896;11.424;2023-02-18T15:05:27;6.10;;;4.53;;
12888;SDS011;56848;49.896;11.424;2023-02-18T15:08:01;6.40;;;3.70;;
12888;SDS011;56848;49.896;11.424;2023-02-18T15:13:12;5.50;;;3.53;;
12888;SDS011;56848;49.896;11.424;2023-02-18T15:15:42;3.30;;;2.90;;
12888;SDS011;56848;49.896;11.424;2023-02-18T15:18:17;5.23;;;3.43;;
12888;SDS011;56848;49.896;11.424;2023-02-18T15:20:51;3.20;;;2.70;;
12888;SDS011;56848;49.896;11.424;2023-02-18T15:23:17;4.00;;;2.60;;
12888;SDS011;56848;49.896;11.424;2023-02-18T15:25:48;3.20;;;2.93;;
12888;SDS011;56848;49.896;11.424;2023-02-18T15:28:24;6.33;;;2.70;;
12888;SDS011;56848;49.896;11.424;2023-02-18T15:30:49;3.20;;;2.90;;
12888;SDS011;56848;49.896;11.424;2023-02-18T15:33:17;4.63;;;2.10;;
12888;SDS011;56848;49.896;11.424;2023-02-18T15:35:43;2.40;;;2.20;;
12888;SDS011;56848;49.896;11.424;2023-02-18T15:38:13;4.00;;;2.37;;
12888;SDS011;56848;49.896;11.424;2023-02-18T15:40:41;3.70;;;2.80;;
12888;SDS011;56848;49.896;11.424;2023-02-18T15:43:08;2.73;;;2.47;;
12888;SDS011;56848;49.896;11.424;2023-02-18T15:45:40;6.50;;;3.23;;
12888;SDS011;56848;49.896;11.424;2023-02-18T15:48:29;5.67;;;2.60;;
12888;SDS011;56848;49.896;11.424;2023-02-18T15:51:04;3.70;;;2.97;;
12888;SDS011;56848;49.896;11.424;2023-02-18T15:53:35;9.93;;;3.10;;
12888;SDS011;56848;49.896;11.424;2023-02-18T15:56:05;2.33;;;2.13;;
12888;SDS011;56848;49.896;11.424;2023-02-18T15:58:33;2.63;;;2.40;;
12888;SDS011;56848;49.896;11.424;2023-02-18T16:01:00;3.03;;;2.30;;
12888;SDS011;56848;49.896;11.424;2023-02-18T16:03:36;3.07;;;2.77;;
12888;SDS011;56848;49.896;11.424;2023-02-18T16:11:37;6.43;;;3.00;;
12888;SDS011;56848;49.896;11.424;2023-02-18T16:14:04;2.33;;;2.17;;
12888;SDS011;56848;49.896;11.424;2023-02-18T16:16:32;5.93;;;3.53;;
12888;SDS011;56848;49.896;11.424;2023-02-18T16:18:59;2.60;;;2.30;;
12888;SDS011;56848;49.896;11.424;2023-02-18T16:21:29;3.53;;;3.23;;
12888;SDS011;56848;49.896;11.424;2023-02-18T16:24:01;8.70;;;4.83;;
12888;SDS011;56848;49.896;11.424;2023-02-18T16:26:45;4.27;;;2.30;;
12888;SDS011;56848;49.896;11.424;2023-02-18T16:29:22;19.63;;;7.93;;
12888;SDS011;56848;49.896;11.424;2023-02-18T16:31:59;21.43;;;9.33;;
12888;SDS011;56848;49.896;11.424;2023-02-18T16:34:24;3.37;;;2.67;;
12888;SDS011;56848;49.896;11.424;2023-02-18T16:36:51;3.03;;;2.80;;
12888;SDS011;56848;49.896;11.424;2023-02-18T16:39:36;13.37;;;6.47;;
12888;SDS011;56848;49.896;11.424;2023-02-18T16:42:01;4.83;;;3.60;;
12888;SDS011;56848;49.896;11.424;2023-02-18T16:44:27;3.23;;;2.70;;
12888;SDS011;56848;49.896;11.424;2023-02-18T16:46:53;5.10;;;2.90;;
12888;SDS011;56848;49.896;11.424;2023-02-18T16:49:18;5.10;;;3.40;;
12888;SDS011;56848;49.896;11.424;2023-02-18T16:51:44;3.60;;;3.07;;
12888;SDS011;56848;49.896;11.424;2023-02-18T16:54:11;3.10;;;2.73;;
12888;SDS011;56848;49.896;11.424;2023-02-18T16:56:37;6.63;;;2.80;;
12888;SDS011;56848;49.896;11.424;2023-02-18T16:59:04;3.43;;;3.00;;
12888;SDS011;56848;49.896;11.424;2023-02-18T17:01:31;3.43;;;3.10;;
12888;SDS011;56848;49.896;11.424;2023-02-18T17:04:02;4.80;;;2.83;;
12888;SDS011;56848;49.896;11.424;2023-02-18T17:06:29;4.33;;;3.40;;
12888;SDS011;56848;49.896;11.424;2023-02-18T17:08:56;5.63;;;3.80;;
12888;SDS011;56848;49.896;11.424;2023-02-18T17:11:23;3.53;;;3.20;;
12888;SDS011;56848;49.896;11.424;2023-02-18T17:13:50;4.50;;;3.63;;
12888;SDS011;56848;49.896;11.424;2023-02-18T17:16:17;3.50;;;3.13;;
12888;SDS011;56848;49.896;11.424;2023-02-18T17:18:44;4.10;;;3.10;;
12888;SDS011;56848;49.896;11.424;2023-02-18T17:21:11;3.40;;;3.10;;
12888;SDS011;56848;49.896;11.424;2023-02-18T17:23:38;7.07;;;3.47;;
12888;SDS011;56848;49.896;11.424;2023-02-18T17:26:04;5.90;;;3.20;;
12888;SDS011;56848;49.896;11.424;2023-02-18T17:28:43;3.60;;;3.17;;
12888;SDS011;56848;49.896;11.424;2023-02-18T17:31:13;3.47;;;2.93;;
12888;SDS011;56848;49.896;11.424;2023-02-18T17:33:41;3.63;;;3.10;;
12888;SDS011;56848;49.896;11.424;2023-02-18T17:36:08;3.13;;;2.80;;
12888;SDS011;56848;49.896;11.424;2023-02-18T17:38:35;3.83;;;2.77;;
12888;SDS011;56848;49.896;11.424;2023-02-18T17:41:00;9.23;;;3.30;;
12888;SDS011;56848;49.896;11.424;2023-02-18T17:43:26;3.70;;;3.10;;
12888;SDS011;56848;49.896;11.424;2023-02-18T17:45:53;3.47;;;3.17;;
12888;SDS011;56848;49.896;11.424;2023-02-18T17:48:21;3.70;;;2.80;;
12888;SDS011;56848;49.896;11.424;2023-02-18T17:50:47;3.20;;;2.90;;
12888;SDS011;56848;49.896;11.424;2023-02-18T17:53:14;3.93;;;3.17;;
12888;SDS011;56848;49.896;11.424;2023-02-18T17:55:41;2.67;;;2.47;;
12888;SDS011;56848;49.896;11.424;2023-02-18T17:58:07;2.23;;;2.13;;
12888;SDS011;56848;49.896;11.424;2023-02-18T18:00:35;7.30;;;3.10;;
12888;SDS011;56848;49.896;11.424;2023-02-18T18:03:03;3.07;;;2.77;;
12888;SDS011;56848;49.896;11.424;2023-02-18T18:05:36;5.60;;;2.77;;
12888;SDS011;56848;49.896;11.424;2023-02-18T18:08:04;2.50;;;2.30;;
12888;SDS011;56848;49.896;11.424;2023-02-18T18:10:31;4.30;;;2.77;;
12888;SDS011;56848;49.896;11.424;2023-02-18T18:12:59;2.40;;;1.80;;
12888;SDS011;56848;49.896;11.424;2023-02-18T18:17:58;3.20;;;2.83;;
12888;SDS011;56848;49.896;11.424;2023-02-18T18:20:25;3.40;;;2.50;;
12888;SDS011;56848;49.896;11.424;2023-02-18T18:22:52;2.50;;;2.30;;
12888;SDS011;56848;49.896;11.424;2023-02-18T18:27:52;3.80;;;3.00;;
12888;SDS011;56848;49.896;11.424;2023-02-18T18:30:22;2.83;;;2.20;;
12888;SDS011;56848;49.896;11.424;2023-02-18T18:32:52;6.73;;;3.40;;
12888;SDS011;56848;49.896;11.424;2023-02-18T18:35:20;14.53;;;8.17;;
12888;SDS011;56848;49.896;11.424;2023-02-18T18:37:48;34.13;;;15.40;;
12888;SDS011;56848;49.896;11.424;2023-02-18T18:40:14;5.60;;;4.10;;
12888;SDS011;56848;49.896;11.424;2023-02-18T18:42:40;6.20;;;4.27;;
12888;SDS011;56848;49.896;11.424;2023-02-18T18:45:06;6.93;;;4.30;;
12888;SDS011;56848;49.896;11.424;2023-02-18T18:47:39;4.20;;;3.77;;
12888;SDS011;56848;49.896;11.424;2023-02-18T18:50:04;5.40;;;4.00;;
12888;SDS011;56848;49.896;11.424;2023-02-18T18:52:30;4.10;;;3.70;;
12888;SDS011;56848;49.896;11.424;2023-02-18T18:54:56;4.33;;;3.10;;
12888;SDS011;56848;49.896;11.424;2023-02-18T18:57:21;5.57;;;4.07;;
12888;SDS011;56848;49.896;11.424;2023-02-18T18:59:47;2.43;;;2.23;;
12888;SDS011;56848;49.896;11.424;2023-02-18T19:02:13;6.87;;;3.20;;
12888;SDS011;56848;49.896;11.424;2023-02-18T19:04:40;3.80;;;3.40;;
12888;SDS011;56848;49.896;11.424;2023-02-18T19:07:06;4.50;;;4.10;;
12888;SDS011;56848;49.896;11.424;2023-02-18T19:09:31;5.37;;;4.17;;
12888;SDS011;56848;49.896;11.424;2023-02-18T19:11:57;5.60;;;3.70;;
12888;SDS011;56848;49.896;11.424;2023-02-18T19:14:22;7.60;;;5.33;;
12888;SDS011;56848;49.896;11.424;2023-02-18T19:16:48;3.23;;;2.93;;
12888;SDS011;56848;49.896;11.424;2023-02-18T19:19:13;9.63;;;5.90;;
12888;SDS011;56848;49.896;11.424;2023-02-18T19:21:39;4.33;;;3.77;;
12888;SDS011;56848;49.896;11.424;2023-02-18T19:24:06;5.20;;;4.30;;
12888;SDS011;56848;49.896;11.424;2023-02-18T19:26:32;9.57;;;5.33;;
12888;SDS011;56848;49.896;11.424;2023-02-18T19:28:58;6.50;;;4.80;;
12888;SDS011;56848;49.896;11.424;2023-02-18T19:31:24;5.80;;;4.13;;
12888;SDS011;56848;49.896;11.424;2023-02-18T19:33:50;6.30;;;4.77;;
12888;SDS011;56848;49.896;11.424;2023-02-18T19:36:16;4.77;;;3.93;;
12888;SDS011;56848;49.896;11.424;2023-02-18T19:38:43;8.63;;;5.87;;
12888;SDS011;56848;49.896;11.424;2023-02-18T19:41:13;6.00;;;3.90;;
12888;SDS011;56848;49.896;11.424;2023-02-18T19:43:41;9.03;;;4.30;;
12888;SDS011;56848;49.896;11.424;2023-02-18T19:46:11;6.87;;;4.47;;
12888;SDS011;56848;49.896;11.424;2023-02-18T19:48:39;5.43;;;4.13;;
12888;SDS011;56848;49.896;11.424;2023-02-18T19:51:06;6.77;;;5.00;;
12888;SDS011;56848;49.896;11.424;2023-02-18T19:53:32;6.87;;;5.40;;
12888;SDS011;56848;49.896;11.424;2023-02-18T19:55:58;7.30;;;4.73;;
12888;SDS011;56848;49.896;11.424;2023-02-18T19:58:25;6.80;;;5.03;;
12888;SDS011;56848;49.896;11.424;2023-02-18T20:00:51;6.33;;;4.50;;
12888;SDS011;56848;49.896;11.424;2023-02-18T20:03:16;9.57;;;5.47;;
12888;SDS011;56848;49.896;11.424;2023-02-18T20:05:42;7.17;;;4.70;;
12888;SDS011;56848;49.896;11.424;2023-02-18T20:08:07;5.83;;;4.70;;
12888;SDS011;56848;49.896;11.424;2023-02-18T20:10:33;7.43;;;5.20;;
12888;SDS011;56848;49.896;11.424;2023-02-18T20:12:59;5.63;;;3.23;;
12888;SDS011;56848;49.896;11.424;2023-02-18T20:15:25;9.70;;;4.30;;
12888;SDS011;56848;49.896;11.424;2023-02-18T20:17:51;6.07;;;3.20;;
12888;SDS011;56848;49.896;11.424;2023-02-18T20:20:17;3.50;;;3.20;;
12888;SDS011;56848;49.896;11.424;2023-02-18T20:22:43;7.83;;;4.20;;
12888;SDS011;56848;49.896;11.424;2023-02-18T20:25:09;6.63;;;4.83;;
12888;SDS011;56848;49.896;11.424;2023-02-18T20:27:35;5.30;;;4.33;;
12888;SDS011;56848;49.896;11.424;2023-02-18T20:30:03;6.93;;;4.53;;
12888;SDS011;56848;49.896;11.424;2023-02-18T20:32:29;6.53;;;4.93;;
12888;SDS011;56848;49.896;11.424;2023-02-18T20:34:55;7.90;;;5.03;;
12888;SDS011;56848;49.896;11.424;2023-02-18T20:37:20;6.60;;;4.90;;
12888;SDS011;56848;49.896;11.424;2023-02-18T20:39:46;6.10;;;4.80;;
12888;SDS011;56848;49.896;11.424;2023-02-18T20:42:12;7.40;;;5.33;;
12888;SDS011;56848;49.896;11.424;2023-02-18T20:44:38;6.90;;;4.80;;
12888;SDS011;56848;49.896;11.424;2023-02-18T20:47:03;6.97;;;3.93;;
12888;SDS011;56848;49.896;11.424;2023-02-18T20:49:29;6.97;;;4.90;;
12888;SDS011;56848;49.896;11.424;2023-02-18T20:51:55;7.50;;;5.60;;
12888;SDS011;56848;49.896;11.424;2023-02-18T20:54:20;6.40;;;5.07;;
12888;SDS011;56848;49.896;11.424;2023-02-18T20:56:47;5.87;;;5.27;;
12888;SDS011;56848;49.896;11.424;2023-02-18T20:59:16;7.20;;;5.20;;
12888;SDS011;56848;49.896;11.424;2023-02-18T21:01:43;7.97;;;5.70;;
12888;SDS011;56848;49.896;11.424;2023-02-18T21:04:10;6.93;;;5.23;;
12888;SDS011;56848;49.896;11.424;2023-02-18T21:06:37;11.73;;;6.20;;
12888;SDS011;56848;49.896;11.424;2023-02-18T21:09:03;7.30;;;5.90;;
12888;SDS011;56848;49.896;11.424;2023-02-18T21:11:30;9.20;;;5.60;;
12888;SDS011;56848;49.896;11.424;2023-02-18T21:13:56;13.03;;;6.30;;
12888;SDS011;56848;49.896;11.424;2023-02-18T21:16:23;9.17;;;6.30;;
12888;SDS011;56848;49.896;11.424;2023-02-18T21:18:50;7.20;;;5.87;;
12888;SDS011;56848;49.896;11.424;2023-02-18T21:21:15;7.80;;;6.23;;
12888;SDS011;56848;49.896;11.424;2023-02-18T21:23:42;10.73;;;6.50;;
12888;SDS011;56848;49.896;11.424;2023-02-18T21:26:12;9.20;;;5.83;;
12888;SDS011;56848;49.896;11.424;2023-02-18T21:28:39;9.03;;;6.47;;
12888;SDS011;56848;49.896;11.424;2023-02-18T21:34:09;11.97;;;6.60;;
12888;SDS011;56848;49.896;11.424;2023-02-18T21:36:36;8.00;;;6.27;;
12888;SDS011;56848;49.896;11.424;2023-02-18T21:39:03;7.33;;;6.17;;
12888;SDS011;56848;49.896;11.424;2023-02-18T21:41:32;8.50;;;6.10;;
12888;SDS011;56848;49.896;11.424;2023-02-18T21:43:58;9.30;;;6.70;;
12888;SDS011;56848;49.896;11.424;2023-02-18T21:46:25;9.83;;;6.63;;
12888;SDS011;56848;49.896;11.424;2023-02-18T21:48:53;8.70;;;6.20;;
12888;SDS011;56848;49.896;11.424;2023-02-18T21:51:35;11.87;;;6.17;;
12888;SDS011;56848;49.896;11.424;2023-02-18T21:54:22;8.70;;;6.47;;
12888;SDS011;56848;49.896;11.424;2023-02-18T21:57:01;9.77;;;6.67;;
12888;SDS011;56848;49.896;11.424;2023-02-18T21:59:28;8.20;;;6.83;;
12888;SDS011;56848;49.896;11.424;2023-02-18T22:01:55;9.00;;;7.33;;
12888;SDS011;56848;49.896;11.424;2023-02-18T22:04:23;14.50;;;6.77;;